Time;durP1;ratioP1;P1;durP2;ratioP2;P2;SDS_P1;SDS_P2;PMS_P1;PMS_P2;Temp;Humidity;BMP_temperature;BMP_pressure;BME280_temperature;BME280_humidity;BME280_pressure;Samples;Min_cycle;Max_cycle;Signal;HPM_P1;HPM_P2
2022/08/15 00:00:07;;;;;;;3.67;2.80;;;;;;;;;;521877;28;1351;-86
2022/08/15 00:00:22;;;;;;;4.85;2.90;;;;;;;;;;522041;28;1457;-86
2022/08/15 00:00:41;;;;;;;5.68;3.00;;;;;;;;;;522820;28;1452;-86
2022/08/15 00:00:56;;;;;;;4.65;2.88;;;;;;;;;;522984;28;1348;-86
2022/08/15 00:01:15;;;;;;;3.75;2.63;;;;;;;;;;524394;28;1773;-86
2022/08/15 00:01:36;;;;;;;3.80;2.50;;;;;;;;;;525874;28;1320;-85
2022/08/15 00:01:52;;;;;;;2.70;2.50;;;;;;;;;;525905;28;1395;-86
2022/08/15 00:02:08;;;;;;;2.93;2.67;;;;;;;;;;525523;28;1235;-86
2022/08/15 00:02:24;;;;;;;3.05;2.75;;;;;;;;;;523389;28;1404;-87
2022/08/15 00:02:43;;;;;;;2.70;2.50;;;;;;;;;;521630;28;919;-86
2022/08/15 00:02:58;;;;;;;4.57;2.40;;;;;;;;;;525797;28;1544;-85
2022/08/15 00:03:27;;;;;;;5.35;2.38;;;;;;;;;;526702;28;1355;-86
2022/08/15 00:03:47;;;;;;;4.72;2.25;;;;;;;;;;526280;28;950;-86
2022/08/15 00:04:07;;;;;;;3.65;2.30;;;;;;;;;;524081;28;1241;-86
2022/08/15 00:04:23;;;;;;;3.20;2.35;;;;;;;;;;524486;28;1410;-87
2022/08/15 00:04:39;;;;;;;3.20;2.35;;;;;;;;;;526147;28;1346;-86
2022/08/15 00:04:54;;;;;;;3.07;2.30;;;;;;;;;;524318;28;1302;-87
2022/08/15 00:05:13;;;;;;;4.20;2.30;;;;;;;;;;524167;28;1392;-86
2022/08/15 00:05:33;;;;;;;3.67;2.30;;;;;;;;;;523952;28;973;-86
2022/08/15 00:05:48;;;;;;;3.38;2.35;;;;;;;;;;524195;28;1292;-87
2022/08/15 00:06:08;;;;;;;3.05;2.20;;;;;;;;;;526449;28;851;-86
2022/08/15 00:06:30;;;;;;;2.85;2.13;;;;;;;;;;527267;28;1359;-86
2022/08/15 00:06:46;;;;;;;2.78;2.28;;;;;;;;;;525011;28;1250;-86
2022/08/15 00:07:02;;;;;;;3.15;2.20;;;;;;;;;;526308;28;851;-86
2022/08/15 00:07:17;;;;;;;4.30;2.20;;;;;;;;;;524225;28;1277;-87
2022/08/15 00:07:33;;;;;;;3.58;2.13;;;;;;;;;;524052;28;851;-87
2022/08/15 00:07:49;;;;;;;3.10;2.10;;;;;;;;;;522469;28;1156;-86
2022/08/15 00:08:06;;;;;;;5.25;2.33;;;;;;;;;;522627;28;1281;-86
2022/08/15 00:08:22;;;;;;;4.40;2.30;;;;;;;;;;523713;28;1287;-86
2022/08/15 00:08:42;;;;;;;2.75;2.10;;;;;;;;;;522042;28;1175;-86
2022/08/15 00:09:01;;;;;;;3.08;2.22;;;;;;;;;;521973;28;1356;-87
2022/08/15 00:09:19;;;;;;;2.88;2.30;;;;;;;;;;525889;28;1490;-86
2022/08/15 00:09:34;;;;;;;4.00;2.20;;;;;;;;;;526455;28;1069;-87
2022/08/15 00:09:49;;;;;;;5.33;2.27;;;;;;;;;;525231;28;1310;-86
2022/08/15 00:10:07;;;;;;;4.43;2.30;;;;;;;;;;525125;28;1485;-86
2022/08/15 00:10:23;;;;;;;3.58;2.33;;;;;;;;;;526600;28;1500;-87
2022/08/15 00:10:38;;;;;;;3.95;2.22;;;;;;;;;;526157;28;1285;-86
2022/08/15 00:11:07;;;;;;;4.33;2.23;;;;;;;;;;526586;28;846;-86
2022/08/15 00:11:31;;;;;;;3.17;2.13;;;;;;;;;;524835;28;1356;-86
2022/08/15 00:11:53;;;;;;;2.70;2.10;;;;;;;;;;525712;28;879;-86
2022/08/15 00:12:08;;;;;;;3.30;2.17;;;;;;;;;;526974;28;1338;-86
2022/08/15 00:12:24;;;;;;;3.97;2.20;;;;;;;;;;526181;28;1185;-86
2022/08/15 00:12:40;;;;;;;3.87;2.17;;;;;;;;;;524318;28;1270;-86
2022/08/15 00:13:00;;;;;;;3.83;2.05;;;;;;;;;;524307;28;1180;-86
2022/08/15 00:13:25;;;;;;;3.20;2.00;;;;;;;;;;523073;28;954;-86
2022/08/15 00:13:44;;;;;;;4.63;2.10;;;;;;;;;;521186;28;1393;-86
2022/08/15 00:14:13;;;;;;;4.38;2.20;;;;;;;;;;520320;28;1367;-86
2022/08/15 00:14:31;;;;;;;4.03;2.40;;;;;;;;;;522028;28;1243;-86
2022/08/15 00:14:47;;;;;;;2.83;2.10;;;;;;;;;;524326;28;1489;-86
2022/08/15 00:15:12;;;;;;;2.90;1.90;;;;;;;;;;524216;28;1411;-86
2022/08/15 00:15:27;;;;;;;3.95;2.08;;;;;;;;;;522170;28;1322;-87
2022/08/15 00:15:45;;;;;;;3.90;1.98;;;;;;;;;;522150;28;1197;-86
2022/08/15 00:16:01;;;;;;;2.78;2.05;;;;;;;;;;522393;28;1401;-86
2022/08/15 00:16:19;;;;;;;3.40;2.20;;;;;;;;;;520330;28;1359;-86
2022/08/15 00:16:38;;;;;;;2.67;2.00;;;;;;;;;;522073;28;1628;-86
2022/08/15 00:16:54;;;;;;;3.67;2.10;;;;;;;;;;520785;28;919;-87
2022/08/15 00:17:09;;;;;;;4.97;2.20;;;;;;;;;;521154;28;1417;-86
2022/08/15 00:17:25;;;;;;;5.70;2.08;;;;;;;;;;521608;28;1291;-86
2022/08/15 00:17:42;;;;;;;6.20;2.03;;;;;;;;;;522087;28;1194;-86
2022/08/15 00:17:57;;;;;;;4.28;1.90;;;;;;;;;;523503;28;1270;-86
2022/08/15 00:18:13;;;;;;;3.17;2.00;;;;;;;;;;524331;28;1179;-86
2022/08/15 00:18:30;;;;;;;2.85;2.10;;;;;;;;;;522174;28;1293;-86
2022/08/15 00:18:47;;;;;;;2.90;2.05;;;;;;;;;;522599;28;1302;-87
2022/08/15 00:19:10;;;;;;;3.90;1.90;;;;;;;;;;524143;28;1377;-85
2022/08/15 00:19:29;;;;;;;4.82;2.03;;;;;;;;;;523697;28;1344;-87
2022/08/15 00:19:47;;;;;;;3.17;2.13;;;;;;;;;;522287;28;816;-87
2022/08/15 00:20:03;;;;;;;3.50;2.03;;;;;;;;;;518003;28;1482;-86
2022/08/15 00:20:19;;;;;;;3.67;2.08;;;;;;;;;;516652;28;1362;-86
2022/08/15 00:20:37;;;;;;;3.77;2.03;;;;;;;;;;520450;28;991;-85
2022/08/15 00:20:53;;;;;;;3.42;2.00;;;;;;;;;;524167;28;1281;-86
2022/08/15 00:21:10;;;;;;;3.53;2.10;;;;;;;;;;523951;28;840;-86
2022/08/15 00:21:26;;;;;;;3.40;2.10;;;;;;;;;;524986;28;1222;-86
2022/08/15 00:21:47;;;;;;;3.38;2.00;;;;;;;;;;526366;28;1226;-87
2022/08/15 00:22:06;;;;;;;3.13;1.90;;;;;;;;;;526134;28;962;-86
2022/08/15 00:22:21;;;;;;;3.55;1.90;;;;;;;;;;526206;28;1464;-87
2022/08/15 00:22:46;;;;;;;4.30;2.00;;;;;;;;;;526103;28;1207;-86
2022/08/15 00:23:01;;;;;;;5.20;1.92;;;;;;;;;;527068;28;1284;-86
2022/08/15 00:23:22;;;;;;;4.30;2.00;;;;;;;;;;526306;28;1292;-87
2022/08/15 00:23:41;;;;;;;4.22;2.15;;;;;;;;;;527446;28;1463;-86
2022/08/15 00:23:57;;;;;;;4.30;2.00;;;;;;;;;;525392;28;1915;-86
2022/08/15 00:24:15;;;;;;;3.60;1.90;;;;;;;;;;523959;28;1580;-86
2022/08/15 00:24:34;;;;;;;4.68;2.10;;;;;;;;;;524162;28;1386;-86
2022/08/15 00:24:50;;;;;;;4.63;2.13;;;;;;;;;;524403;28;942;-86
2022/08/15 00:25:06;;;;;;;4.53;2.10;;;;;;;;;;521912;28;1339;-86
2022/08/15 00:25:22;;;;;;;3.47;2.10;;;;;;;;;;522249;28;816;-86
2022/08/15 00:25:37;;;;;;;3.07;1.93;;;;;;;;;;521712;28;1409;-86
2022/08/15 00:25:57;;;;;;;3.70;2.00;;;;;;;;;;521600;28;1215;-87
2022/08/15 00:26:14;;;;;;;3.15;2.00;;;;;;;;;;521154;28;1259;-86
2022/08/15 00:26:29;;;;;;;3.75;2.00;;;;;;;;;;523954;28;1262;-86
2022/08/15 00:26:48;;;;;;;3.72;1.90;;;;;;;;;;524374;28;828;-87
2022/08/15 00:27:07;;;;;;;4.47;2.00;;;;;;;;;;524226;28;1413;-86
2022/08/15 00:27:24;;;;;;;4.78;2.10;;;;;;;;;;522125;28;1314;-87
2022/08/15 00:27:39;;;;;;;3.58;1.90;;;;;;;;;;523481;28;1451;-86
2022/08/15 00:27:55;;;;;;;3.72;2.00;;;;;;;;;;521368;28;1202;-87
2022/08/15 00:28:10;;;;;;;3.67;2.20;;;;;;;;;;522015;28;1196;-86
2022/08/15 00:28:28;;;;;;;4.72;2.10;;;;;;;;;;522146;28;926;-86
2022/08/15 00:28:43;;;;;;;4.88;2.00;;;;;;;;;;520536;28;1306;-87
2022/08/15 00:28:59;;;;;;;3.60;1.93;;;;;;;;;;521469;28;1172;-86
2022/08/15 00:29:19;;;;;;;3.70;2.00;;;;;;;;;;523026;28;1154;-87
2022/08/15 00:29:36;;;;;;;2.90;1.92;;;;;;;;;;525445;28;1259;-86
2022/08/15 00:29:53;;;;;;;3.45;1.88;;;;;;;;;;525762;28;1389;-86
2022/08/15 00:30:11;;;;;;;3.08;1.80;;;;;;;;;;524961;28;1509;-86
2022/08/15 00:30:26;;;;;;;3.55;1.95;;;;;;;;;;526382;28;836;-86
2022/08/15 00:30:44;;;;;;;3.83;1.98;;;;;;;;;;524265;28;1362;-86
2022/08/15 00:31:00;;;;;;;5.03;1.92;;;;;;;;;;522299;28;1253;-86
2022/08/15 00:31:17;;;;;;;6.70;2.08;;;;;;;;;;526217;28;1064;-86
2022/08/15 00:31:33;;;;;;;5.97;2.00;;;;;;;;;;523928;28;1340;-87
2022/08/15 00:31:48;;;;;;;4.50;2.00;;;;;;;;;;522074;28;1304;-86
2022/08/15 00:32:07;;;;;;;5.63;2.00;;;;;;;;;;521902;28;1306;-86
2022/08/15 00:32:26;;;;;;;4.75;1.90;;;;;;;;;;519975;28;1401;-85
2022/08/15 00:32:53;;;;;;;3.88;2.10;;;;;;;;;;519616;28;1412;-86
2022/08/15 00:33:09;;;;;;;4.22;2.00;;;;;;;;;;521855;28;1394;-86
2022/08/15 00:33:25;;;;;;;3.60;1.85;;;;;;;;;;520260;28;1353;-86
2022/08/15 00:33:40;;;;;;;2.63;1.87;;;;;;;;;;519676;28;1464;-86
2022/08/15 00:33:56;;;;;;;3.47;2.15;;;;;;;;;;518183;28;1363;-86
2022/08/15 00:34:14;;;;;;;4.80;1.97;;;;;;;;;;520203;28;1530;-87
2022/08/15 00:34:30;;;;;;;3.75;1.80;;;;;;;;;;520252;28;832;-87
2022/08/15 00:34:46;;;;;;;3.63;1.80;;;;;;;;;;520056;28;1342;-87
2022/08/15 00:35:02;;;;;;;3.67;1.88;;;;;;;;;;521152;28;1272;-86
2022/08/15 00:35:36;;;;;;;4.03;2.08;;;;;;;;;;520955;28;1222;-86
2022/08/15 00:35:51;;;;;;;3.17;2.00;;;;;;;;;;524293;28;1898;-86
2022/08/15 00:36:07;;;;;;;3.83;1.90;;;;;;;;;;525884;28;1202;-86
2022/08/15 00:36:23;;;;;;;4.57;1.90;;;;;;;;;;526141;28;1539;-86
2022/08/15 00:36:38;;;;;;;5.47;2.00;;;;;;;;;;526186;28;1372;-86
2022/08/15 00:36:53;;;;;;;4.27;1.93;;;;;;;;;;526763;28;1196;-86
2022/08/15 00:37:09;;;;;;;3.80;1.80;;;;;;;;;;524047;28;1241;-87
2022/08/15 00:37:25;;;;;;;6.50;2.05;;;;;;;;;;522573;28;1374;-85
2022/08/15 00:37:40;;;;;;;5.47;2.03;;;;;;;;;;523569;28;1353;-86
2022/08/15 00:37:56;;;;;;;3.73;2.20;;;;;;;;;;522842;28;1345;-87
2022/08/15 00:38:16;;;;;;;3.05;2.20;;;;;;;;;;523558;28;1394;-86
2022/08/15 00:38:31;;;;;;;4.50;2.00;;;;;;;;;;523947;28;1254;-86
2022/08/15 00:38:47;;;;;;;4.43;2.10;;;;;;;;;;524000;28;1294;-86
2022/08/15 00:39:03;;;;;;;4.17;2.10;;;;;;;;;;522000;28;1624;-86
2022/08/15 00:39:22;;;;;;;3.50;2.00;;;;;;;;;;521319;28;1419;-86
2022/08/15 00:39:39;;;;;;;3.78;1.85;;;;;;;;;;522049;28;1262;-86
2022/08/15 00:39:54;;;;;;;4.73;1.97;;;;;;;;;;522006;28;1413;-87
2022/08/15 00:40:09;;;;;;;3.83;2.03;;;;;;;;;;523418;28;1188;-87
2022/08/15 00:40:25;;;;;;;2.83;1.90;;;;;;;;;;520582;28;1295;-86
2022/08/15 00:41:53;;;;;;;4.90;2.20;;;;;;;;;;526190;28;721;-87
2022/08/15 00:42:09;;;;;;;4.63;2.17;;;;;;;;;;525780;28;1139;-87
2022/08/15 00:42:25;;;;;;;3.70;1.90;;;;;;;;;;526431;28;870;-86
2022/08/15 00:42:40;;;;;;;3.97;1.90;;;;;;;;;;526029;28;954;-86
2022/08/15 00:42:56;;;;;;;4.00;1.90;;;;;;;;;;527733;28;1382;-86
2022/08/15 00:43:15;;;;;;;3.40;1.87;;;;;;;;;;528488;28;772;-87
2022/08/15 00:43:33;;;;;;;3.58;1.92;;;;;;;;;;524627;28;1423;-86
2022/08/15 00:43:56;;;;;;;3.72;2.10;;;;;;;;;;522012;28;1399;-86
2022/08/15 00:44:45;;;;;;;3.80;2.00;;;;;;;;;;526074;28;899;-87
2022/08/15 00:45:00;;;;;;;3.90;1.80;;;;;;;;;;512523;28;1386;-86
2022/08/15 00:45:17;;;;;;;5.43;2.00;;;;;;;;;;513005;28;1495;-86
2022/08/15 00:45:33;;;;;;;3.85;2.08;;;;;;;;;;513803;28;1316;-86
2022/08/15 00:45:49;;;;;;;3.20;2.00;;;;;;;;;;512058;28;1251;-86
2022/08/15 00:46:08;;;;;;;4.88;2.05;;;;;;;;;;513503;28;1410;-87
2022/08/15 00:46:26;;;;;;;6.15;2.10;;;;;;;;;;521640;28;1284;-87
2022/08/15 00:46:45;;;;;;;6.15;2.05;;;;;;;;;;521236;28;1374;-86
2022/08/15 00:47:05;;;;;;;4.90;1.92;;;;;;;;;;523942;28;879;-86
2022/08/15 00:47:22;;;;;;;4.78;2.10;;;;;;;;;;522171;28;1368;-86
2022/08/15 00:47:37;;;;;;;4.15;2.00;;;;;;;;;;524445;28;1228;-87
2022/08/15 00:48:42;;;;;;;3.40;1.80;;;;;;;;;;526893;28;1286;-86
2022/08/15 00:48:57;;;;;;;2.80;1.90;;;;;;;;;;528444;28;882;-86
2022/08/15 00:49:13;;;;;;;3.50;2.07;;;;;;;;;;525757;28;1208;-86
2022/08/15 00:49:32;;;;;;;3.70;2.00;;;;;;;;;;526228;28;1436;-86
2022/08/15 00:49:47;;;;;;;4.25;1.88;;;;;;;;;;524119;28;1398;-86
2022/08/15 00:50:03;;;;;;;3.57;1.80;;;;;;;;;;521990;28;1254;-86
2022/08/15 00:50:19;;;;;;;3.38;1.95;;;;;;;;;;522106;28;1350;-87
2022/08/15 00:50:35;;;;;;;3.88;1.90;;;;;;;;;;522317;28;1266;-86
2022/08/15 00:50:51;;;;;;;4.63;2.00;;;;;;;;;;524325;28;978;-87
2022/08/15 00:51:12;;;;;;;4.80;1.90;;;;;;;;;;524098;28;1508;-86
2022/08/15 00:51:39;;;;;;;3.80;1.73;;;;;;;;;;524029;28;1229;-86
2022/08/15 00:52:09;;;;;;;4.28;1.92;;;;;;;;;;526847;28;1227;-86
2022/08/15 00:52:28;;;;;;;2.88;1.85;;;;;;;;;;526221;28;1375;-87
2022/08/15 00:52:44;;;;;;;2.45;1.80;;;;;;;;;;523706;28;1278;-87
2022/08/15 00:53:08;;;;;;;2.47;1.92;;;;;;;;;;524022;28;1381;-86
2022/08/15 00:53:23;;;;;;;3.08;2.00;;;;;;;;;;523694;28;1349;-86
2022/08/15 00:53:43;;;;;;;3.97;2.05;;;;;;;;;;523984;28;1227;-87
2022/08/15 00:54:05;;;;;;;3.45;1.80;;;;;;;;;;521900;28;1372;-86
2022/08/15 00:54:46;;;;;;;4.38;2.10;;;;;;;;;;523649;28;937;-87
2022/08/15 00:55:08;;;;;;;2.60;2.00;;;;;;;;;;524030;28;1405;-87
2022/08/15 00:55:26;;;;;;;5.15;1.92;;;;;;;;;;524148;28;1332;-86
2022/08/15 00:55:44;;;;;;;2.72;1.80;;;;;;;;;;525233;28;867;-87
2022/08/15 00:56:01;;;;;;;2.10;1.80;;;;;;;;;;524208;28;1365;-87
2022/08/15 00:56:19;;;;;;;3.63;1.95;;;;;;;;;;525735;28;1471;-87
2022/08/15 00:56:46;;;;;;;4.35;2.10;;;;;;;;;;526035;28;1660;-86
2022/08/15 00:57:09;;;;;;;2.13;1.70;;;;;;;;;;526102;28;1317;-86
2022/08/15 00:57:51;;;;;;;2.33;1.70;;;;;;;;;;526923;28;1284;-85
2022/08/15 00:58:06;;;;;;;3.35;2.10;;;;;;;;;;520283;28;1380;-86
2022/08/15 00:58:22;;;;;;;2.72;2.10;;;;;;;;;;524239;28;1192;-86
2022/08/15 00:58:38;;;;;;;2.40;1.80;;;;;;;;;;524322;28;1343;-87
2022/08/15 00:58:54;;;;;;;2.88;1.70;;;;;;;;;;524540;28;948;-86
2022/08/15 00:59:13;;;;;;;3.03;1.70;;;;;;;;;;525456;28;1367;-86
2022/08/15 00:59:34;;;;;;;3.83;1.75;;;;;;;;;;525649;28;1378;-87
2022/08/15 00:59:54;;;;;;;4.03;1.92;;;;;;;;;;524654;28;892;-86
2022/08/15 01:00:20;;;;;;;2.85;1.85;;;;;;;;;;524224;28;1328;-87
2022/08/15 01:00:42;;;;;;;4.50;1.98;;;;;;;;;;523057;28;1251;-86
2022/08/15 01:00:58;;;;;;;3.78;1.80;;;;;;;;;;521982;28;1342;-86
2022/08/15 01:01:15;;;;;;;3.63;1.90;;;;;;;;;;520039;28;1222;-87
2022/08/15 01:01:32;;;;;;;4.50;2.00;;;;;;;;;;523792;28;899;-86
2022/08/15 01:01:47;;;;;;;3.55;1.90;;;;;;;;;;522225;28;982;-86
2022/08/15 01:02:07;;;;;;;3.40;1.90;;;;;;;;;;522862;28;1305;-86
2022/08/15 01:02:27;;;;;;;4.60;2.00;;;;;;;;;;522265;28;1345;-86
2022/08/15 01:02:42;;;;;;;3.85;2.10;;;;;;;;;;522288;28;1405;-86
2022/08/15 01:03:00;;;;;;;2.90;2.00;;;;;;;;;;520178;28;1220;-87
2022/08/15 01:03:24;;;;;;;2.47;1.80;;;;;;;;;;520618;28;1263;-87
2022/08/15 01:03:47;;;;;;;3.65;1.95;;;;;;;;;;517877;28;903;-86
2022/08/15 01:04:02;;;;;;;4.38;1.88;;;;;;;;;;523958;28;884;-86
2022/08/15 01:04:18;;;;;;;3.15;1.80;;;;;;;;;;525751;28;1182;-87
2022/08/15 01:04:36;;;;;;;3.05;1.75;;;;;;;;;;524917;28;1282;-87
2022/08/15 01:04:51;;;;;;;4.10;2.00;;;;;;;;;;521988;28;1334;-86
2022/08/15 01:05:10;;;;;;;4.37;2.10;;;;;;;;;;522452;28;1419;-87
2022/08/15 01:05:26;;;;;;;3.50;1.80;;;;;;;;;;524237;28;1355;-87
2022/08/15 01:05:48;;;;;;;3.25;1.77;;;;;;;;;;523218;28;1358;-87
2022/08/15 01:06:04;;;;;;;2.75;1.92;;;;;;;;;;521690;28;975;-86
2022/08/15 01:06:21;;;;;;;3.15;2.05;;;;;;;;;;521648;28;1397;-87
2022/08/15 01:06:37;;;;;;;3.60;2.00;;;;;;;;;;519838;28;1747;-87
2022/08/15 01:06:52;;;;;;;3.28;1.90;;;;;;;;;;519863;28;1379;-87
2022/08/15 01:07:09;;;;;;;3.35;2.00;;;;;;;;;;519664;28;1382;-86
2022/08/15 01:07:24;;;;;;;3.53;2.00;;;;;;;;;;519834;28;1270;-86
2022/08/15 01:07:41;;;;;;;3.80;1.92;;;;;;;;;;517882;28;1450;-87
2022/08/15 01:07:56;;;;;;;3.13;1.88;;;;;;;;;;519238;28;1383;-86
2022/08/15 01:08:14;;;;;;;3.13;1.90;;;;;;;;;;519985;28;1280;-87
2022/08/15 01:08:33;;;;;;;3.22;1.90;;;;;;;;;;520098;28;1450;-86
2022/08/15 01:08:49;;;;;;;4.22;2.03;;;;;;;;;;519877;28;1259;-86
2022/08/15 01:09:07;;;;;;;3.40;2.00;;;;;;;;;;519849;28;784;-86
2022/08/15 01:09:23;;;;;;;2.90;2.00;;;;;;;;;;519908;28;1243;-87
2022/08/15 01:09:39;;;;;;;3.88;1.90;;;;;;;;;;518785;28;1199;-87
2022/08/15 01:09:54;;;;;;;3.65;1.80;;;;;;;;;;518113;28;1458;-87
2022/08/15 01:10:10;;;;;;;3.00;1.90;;;;;;;;;;521087;28;1346;-86
2022/08/15 01:10:26;;;;;;;2.90;1.80;;;;;;;;;;521184;28;1372;-87
2022/08/15 01:10:41;;;;;;;3.10;1.90;;;;;;;;;;521895;28;1386;-87
2022/08/15 01:11:02;;;;;;;3.65;1.90;;;;;;;;;;520028;28;1291;-87
2022/08/15 01:11:20;;;;;;;4.70;1.80;;;;;;;;;;521904;28;1421;-87
2022/08/15 01:11:42;;;;;;;4.53;1.77;;;;;;;;;;523646;28;884;-86
2022/08/15 01:12:06;;;;;;;3.55;2.00;;;;;;;;;;523461;28;1271;-86
2022/08/15 01:12:25;;;;;;;2.92;1.90;;;;;;;;;;525993;28;1101;-85
2022/08/15 01:12:41;;;;;;;3.05;1.90;;;;;;;;;;526310;28;1046;-87
2022/08/15 01:12:57;;;;;;;3.42;1.90;;;;;;;;;;527072;28;1399;-87
2022/08/15 01:13:12;;;;;;;3.17;1.90;;;;;;;;;;526698;28;1355;-87
2022/08/15 01:13:30;;;;;;;2.87;1.80;;;;;;;;;;526302;28;1387;-86
2022/08/15 01:13:47;;;;;;;4.03;1.95;;;;;;;;;;527058;28;1087;-86
2022/08/15 01:14:06;;;;;;;4.32;2.10;;;;;;;;;;526767;28;1438;-87
2022/08/15 01:14:23;;;;;;;3.60;2.00;;;;;;;;;;524122;28;1519;-86
2022/08/15 01:14:43;;;;;;;2.50;2.08;;;;;;;;;;523771;28;1375;-87
2022/08/15 01:15:03;;;;;;;2.67;1.90;;;;;;;;;;523896;28;1401;-86
2022/08/15 01:15:20;;;;;;;3.40;1.98;;;;;;;;;;526141;28;1297;-87
2022/08/15 01:15:36;;;;;;;3.13;1.90;;;;;;;;;;526271;28;836;-86
2022/08/15 01:15:52;;;;;;;3.85;1.90;;;;;;;;;;526622;28;1971;-86
2022/08/15 01:16:07;;;;;;;4.07;1.85;;;;;;;;;;524845;28;1081;-86
2022/08/15 01:16:26;;;;;;;2.20;1.90;;;;;;;;;;526185;28;1387;-87
2022/08/15 01:16:41;;;;;;;3.05;2.00;;;;;;;;;;527715;28;1292;-87
2022/08/15 01:16:57;;;;;;;3.77;2.00;;;;;;;;;;524716;28;1245;-87
2022/08/15 01:17:14;;;;;;;3.55;1.90;;;;;;;;;;524089;28;1063;-87
2022/08/15 01:17:31;;;;;;;2.85;2.00;;;;;;;;;;524186;28;919;-86
2022/08/15 01:17:46;;;;;;;2.85;1.95;;;;;;;;;;524094;28;1262;-87
2022/08/15 01:18:03;;;;;;;2.60;1.80;;;;;;;;;;525421;28;1210;-87
2022/08/15 01:18:18;;;;;;;2.63;1.80;;;;;;;;;;525432;28;1289;-86
2022/08/15 01:18:35;;;;;;;3.50;1.80;;;;;;;;;;523978;28;1170;-87
2022/08/15 01:18:51;;;;;;;3.20;1.90;;;;;;;;;;524217;28;1503;-87
2022/08/15 01:19:29;;;;;;;2.63;1.98;;;;;;;;;;524918;28;903;-87
2022/08/15 01:19:56;;;;;;;4.10;2.13;;;;;;;;;;524924;28;1372;-87
2022/08/15 01:20:16;;;;;;;4.18;2.10;;;;;;;;;;523683;28;1299;-87
2022/08/15 01:20:33;;;;;;;3.15;2.00;;;;;;;;;;525689;28;1223;-86
2022/08/15 01:20:53;;;;;;;4.38;2.20;;;;;;;;;;527937;28;1080;-87
2022/08/15 01:21:31;;;;;;;3.78;2.22;;;;;;;;;;526337;28;1358;-86
2022/08/15 01:21:49;;;;;;;4.28;1.92;;;;;;;;;;524650;28;1416;-87
2022/08/15 01:22:18;;;;;;;4.43;1.83;;;;;;;;;;522796;28;1382;-87
2022/08/15 01:22:52;;;;;;;3.45;2.00;;;;;;;;;;524683;28;1281;-87
2022/08/15 01:23:12;;;;;;;4.07;2.00;;;;;;;;;;525399;28;1390;-87
2022/08/15 01:23:45;;;;;;;2.90;2.15;;;;;;;;;;525875;28;1256;-87
2022/08/15 01:24:24;;;;;;;3.65;1.90;;;;;;;;;;528250;28;1527;-87
2022/08/15 01:25:06;;;;;;;3.47;1.90;;;;;;;;;;524772;28;1369;-86
2022/08/15 01:25:29;;;;;;;3.00;1.73;;;;;;;;;;519921;28;1486;-87
2022/08/15 01:25:55;;;;;;;3.78;1.90;;;;;;;;;;526218;28;1232;-87
2022/08/15 01:26:14;;;;;;;4.22;2.00;;;;;;;;;;526882;28;899;-87
2022/08/15 01:26:31;;;;;;;4.63;2.00;;;;;;;;;;526280;28;1477;-86
2022/08/15 01:26:46;;;;;;;3.20;1.88;;;;;;;;;;526062;28;1294;-87
2022/08/15 01:27:02;;;;;;;2.93;1.90;;;;;;;;;;524083;28;1372;-86
2022/08/15 01:27:19;;;;;;;3.87;2.00;;;;;;;;;;523367;28;1236;-87
2022/08/15 01:28:23;;;;;;;5.03;2.00;;;;;;;;;;521668;28;1309;-87
2022/08/15 01:28:45;;;;;;;2.83;2.03;;;;;;;;;;515100;28;1519;-86
2022/08/15 01:29:01;;;;;;;2.28;1.80;;;;;;;;;;522181;28;1409;-87
2022/08/15 01:29:18;;;;;;;2.22;1.80;;;;;;;;;;522852;28;1252;-87
2022/08/15 01:29:33;;;;;;;2.60;1.90;;;;;;;;;;525732;28;1359;-87
2022/08/15 01:29:50;;;;;;;2.53;1.85;;;;;;;;;;523910;28;1329;-86
2022/08/15 01:30:10;;;;;;;2.63;1.90;;;;;;;;;;523966;28;1331;-86
2022/08/15 01:30:31;;;;;;;3.95;1.90;;;;;;;;;;524222;28;1134;-87
2022/08/15 01:31:08;;;;;;;3.55;2.00;;;;;;;;;;526204;28;1250;-86
2022/08/15 01:31:25;;;;;;;2.53;1.90;;;;;;;;;;524198;28;1007;-86
2022/08/15 01:31:40;;;;;;;2.95;1.90;;;;;;;;;;524936;28;1301;-86
2022/08/15 01:31:56;;;;;;;4.65;2.00;;;;;;;;;;523945;28;1199;-86
2022/08/15 01:32:12;;;;;;;4.80;2.10;;;;;;;;;;524121;28;819;-87
2022/08/15 01:32:28;;;;;;;3.40;2.03;;;;;;;;;;526209;28;1249;-86
2022/08/15 01:32:43;;;;;;;3.50;2.00;;;;;;;;;;522579;28;1270;-86
2022/08/15 01:32:59;;;;;;;3.25;2.08;;;;;;;;;;521763;28;1254;-86
2022/08/15 01:33:15;;;;;;;3.20;2.00;;;;;;;;;;523972;28;1369;-86
2022/08/15 01:33:38;;;;;;;4.25;1.90;;;;;;;;;;526117;28;1323;-86
2022/08/15 01:33:57;;;;;;;4.88;1.90;;;;;;;;;;523988;28;1356;-86
2022/08/15 01:34:13;;;;;;;4.72;2.05;;;;;;;;;;525340;28;1246;-86
2022/08/15 01:34:29;;;;;;;4.10;2.00;;;;;;;;;;524692;28;1474;-86
2022/08/15 01:34:44;;;;;;;3.85;2.00;;;;;;;;;;524120;28;1362;-86
2022/08/15 01:35:03;;;;;;;3.67;1.97;;;;;;;;;;521927;28;1187;-86
2022/08/15 01:35:18;;;;;;;4.20;2.10;;;;;;;;;;521986;28;1255;-86
2022/08/15 01:35:34;;;;;;;4.97;2.10;;;;;;;;;;521977;28;1161;-87
2022/08/15 01:35:51;;;;;;;4.20;2.13;;;;;;;;;;521135;28;1906;-86
2022/08/15 01:36:07;;;;;;;5.40;2.05;;;;;;;;;;519578;28;1340;-86
2022/08/15 09:33:35;;;;;;;5.38;2.41;;;;;;;;;;122900;26;10002359;-81
2022/08/15 09:34:09;;;;;;;3.63;2.20;;;;;;;;;;512439;28;1722;-81
2022/08/15 09:35:20;;;;;;;7.25;2.40;;;;;;;;;;511204;29;1283;-82
2022/08/15 09:35:45;;;;;;;4.30;2.35;;;;;;;;;;511277;28;1553;-81
2022/08/15 09:36:19;;;;;;;4.78;2.42;;;;;;;;;;509260;29;1293;-82
